createdAt,value
2018-09-15T00:00:38.273Z,39.83
2018-09-15T00:03:09.897Z,38.30
2018-09-15T00:05:41.862Z,39.67
2018-09-15T00:08:13.039Z,37.20
2018-09-15T00:10:44.869Z,35.03
2018-09-15T00:13:17.058Z,34.23
2018-09-15T00:15:49.055Z,33.07
2018-09-15T00:18:20.898Z,32.00
2018-09-15T00:20:52.506Z,34.50
2018-09-15T00:23:23.775Z,32.03
2018-09-15T00:25:55.592Z,31.90
2018-09-15T00:28:26.836Z,32.33
2018-09-15T00:30:58.598Z,30.63
2018-09-15T00:33:30.194Z,30.93
2018-09-15T00:36:01.703Z,33.63
2018-09-15T00:38:33.154Z,30.13
2018-09-15T00:41:04.759Z,29.60
2018-09-15T00:43:36.131Z,29.73
2018-09-15T00:46:07.865Z,29.73
2018-09-15T00:48:40.282Z,28.70
2018-09-15T00:51:11.794Z,28.23
2018-09-15T00:53:43.878Z,26.77
2018-09-15T00:56:16.248Z,25.20
2018-09-15T00:58:47.639Z,26.33
2018-09-15T01:01:19.541Z,26.00
2018-09-15T01:03:51.006Z,27.30
2018-09-15T01:06:22.645Z,25.83
2018-09-15T01:08:54.096Z,26.93
2018-09-15T01:11:25.956Z,26.43
2018-09-15T01:13:57.846Z,29.87
2018-09-15T01:16:29.841Z,29.30
2018-09-15T01:19:01.138Z,29.40
2018-09-15T01:21:32.861Z,26.57
2018-09-15T01:24:04.842Z,29.93
2018-09-15T01:26:36.426Z,28.07
2018-09-15T01:29:08.507Z,27.60
2018-09-15T01:31:40.982Z,29.40
2018-09-15T01:34:12.277Z,29.20
2018-09-15T01:36:44.139Z,28.33
2018-09-15T01:39:15.645Z,27.30
2018-09-15T01:41:47.066Z,27.90
2018-09-15T01:44:18.413Z,27.63
2018-09-15T01:46:49.922Z,27.33
2018-09-15T01:49:22.578Z,26.10
2018-09-15T01:51:54.272Z,27.73
2018-09-15T01:54:25.777Z,29.70
2018-09-15T01:56:57.624Z,28.10
2018-09-15T01:59:28.837Z,27.20
2018-09-15T02:02:00.462Z,26.30
2018-09-15T02:04:32.027Z,27.97
2018-09-15T02:07:03.706Z,26.77
2018-09-15T02:09:35.205Z,29.83
2018-09-15T02:12:06.814Z,27.27
2018-09-15T02:14:38.302Z,26.93
2018-09-15T02:17:10.340Z,26.93
2018-09-15T02:19:41.745Z,27.90
2018-09-15T02:22:13.269Z,27.33
2018-09-15T02:24:44.742Z,26.60
2018-09-15T02:27:16.410Z,27.63
2018-09-15T02:29:47.810Z,25.87
2018-09-15T02:32:19.342Z,26.23
2018-09-15T02:34:51.387Z,26.10
2018-09-15T02:37:23.030Z,25.57
2018-09-15T02:39:54.476Z,23.50
2018-09-15T02:42:26.198Z,23.07
2018-09-15T02:44:57.517Z,24.57
2018-09-15T02:47:29.572Z,24.70
2018-09-15T02:50:03.289Z,23.27
2018-09-15T02:52:35.037Z,21.40
2018-09-15T02:55:14.209Z,23.40
2018-09-15T02:57:46.011Z,24.30
2018-09-15T03:00:17.514Z,25.23
2018-09-15T03:02:49.045Z,23.77
2018-09-15T03:05:20.400Z,24.70
2018-09-15T03:07:52.133Z,25.70
2018-09-15T03:10:23.554Z,25.70
2018-09-15T03:12:55.154Z,26.17
2018-09-15T03:15:28.658Z,25.50
2018-09-15T03:18:00.473Z,23.30
2018-09-15T03:20:31.949Z,24.90
2018-09-15T03:23:10.377Z,22.10
2018-09-15T03:25:42.209Z,23.47
2018-09-15T03:28:14.117Z,22.17
2018-09-15T03:30:45.585Z,22.97
2018-09-15T03:33:17.360Z,23.73
2018-09-15T03:35:48.661Z,26.97
2018-09-15T03:38:20.533Z,27.73
2018-09-15T03:40:52.938Z,27.97
2018-09-15T03:43:24.873Z,28.30
2018-09-15T03:45:56.138Z,30.60
2018-09-15T03:48:27.821Z,29.67
2018-09-15T03:51:00.147Z,30.70
2018-09-15T03:53:32.031Z,29.20
2018-09-15T03:56:03.258Z,30.90
2018-09-15T03:58:35.050Z,32.23
2018-09-15T04:01:08.050Z,31.77
2018-09-15T04:03:39.937Z,32.50
2018-09-15T04:06:11.095Z,31.47
2018-09-15T04:08:42.701Z,28.83
2018-09-15T04:11:14.085Z,27.10
2018-09-15T04:13:45.655Z,31.03
2018-09-15T04:16:17.125Z,24.70
2018-09-15T04:18:48.921Z,26.50
2018-09-15T04:21:20.134Z,24.43
2018-09-15T04:23:51.831Z,24.50
2018-09-15T04:26:23.424Z,23.30
2018-09-15T04:28:54.686Z,23.47
2018-09-15T04:31:31.016Z,23.37
2018-09-15T04:34:03.558Z,24.33
2018-09-15T04:36:34.652Z,21.13
2018-09-15T04:39:08.606Z,21.80
2018-09-15T04:41:39.849Z,23.40
2018-09-15T04:44:12.014Z,23.07
2018-09-15T04:46:43.133Z,22.23
2018-09-15T04:49:15.482Z,20.70
2018-09-15T04:51:49.028Z,20.50
2018-09-15T04:54:20.358Z,21.80
2018-09-15T04:56:51.416Z,22.63
2018-09-15T04:59:22.584Z,22.77
2018-09-15T05:01:53.736Z,20.92
2018-09-15T05:04:25.496Z,18.70
2018-09-15T05:06:56.807Z,19.07
2018-09-15T05:09:28.607Z,18.00
2018-09-15T05:11:59.933Z,18.73
2018-09-15T05:14:31.077Z,16.37
2018-09-15T05:17:02.317Z,16.17
2018-09-15T05:19:33.705Z,15.73
2018-09-15T05:22:05.086Z,15.00
2018-09-15T05:24:36.551Z,15.10
2018-09-15T05:27:07.805Z,13.90
2018-09-15T05:29:39.130Z,13.50
2018-09-15T05:32:10.229Z,15.10
2018-09-15T05:34:41.576Z,15.03
2018-09-15T05:37:12.625Z,13.38
2018-09-15T05:39:43.961Z,14.23
2018-09-15T05:42:15.047Z,13.72
2018-09-15T05:44:46.459Z,15.50
2018-09-15T05:47:17.569Z,16.30
2018-09-15T05:49:49.021Z,18.40
2018-09-15T05:52:21.192Z,19.30
2018-09-15T05:54:52.671Z,18.85
2018-09-15T05:57:23.826Z,20.85
2018-09-15T05:59:55.169Z,19.55
2018-09-15T06:02:26.269Z,20.50
2018-09-15T06:04:57.538Z,21.20
2018-09-15T06:07:28.501Z,23.05
2018-09-15T06:10:00.060Z,21.30
2018-09-15T06:12:31.216Z,22.75
2018-09-15T06:15:02.746Z,21.30
2018-09-15T06:17:33.698Z,19.12
2018-09-15T06:20:04.998Z,20.52
2018-09-15T06:22:35.974Z,22.77
2018-09-15T06:25:07.319Z,19.17
2018-09-15T06:27:38.370Z,18.98
2018-09-15T06:30:10.775Z,19.35
2018-09-15T06:32:41.782Z,20.55
2018-09-15T06:35:13.714Z,21.57
2018-09-15T06:37:45.174Z,19.82
2018-09-15T06:40:16.982Z,20.60
2018-09-15T06:42:47.939Z,20.55
2018-09-15T06:45:19.707Z,21.40
2018-09-15T06:47:50.849Z,22.00
2018-09-15T06:50:22.332Z,22.73
2018-09-15T06:52:55.017Z,21.82
2018-09-15T06:55:26.894Z,22.52
2018-09-15T06:57:58.441Z,26.27
2018-09-15T07:00:29.910Z,24.15
2018-09-15T07:03:00.982Z,20.88
2018-09-15T07:05:32.503Z,24.15
2018-09-15T07:08:03.586Z,24.27
2018-09-15T07:10:35.329Z,25.68
2018-09-15T07:13:06.430Z,20.85
2018-09-15T07:15:37.878Z,18.90
2018-09-15T07:18:09.377Z,18.35
2018-09-15T07:20:41.493Z,22.15
2018-09-15T07:23:13.692Z,23.77
2018-09-15T07:25:45.355Z,22.37
2018-09-15T07:28:17.694Z,20.05
2018-09-15T07:30:49.426Z,21.62
2018-09-15T07:33:21.482Z,20.45
2018-09-15T07:35:53.435Z,23.27
2018-09-15T07:38:24.475Z,20.27
2018-09-15T07:40:56.557Z,16.02
2018-09-15T07:43:27.568Z,18.90
2018-09-15T07:45:59.173Z,17.65
2018-09-15T07:48:30.294Z,16.30
2018-09-15T07:51:01.807Z,17.67
2018-09-15T07:53:34.189Z,18.40
2018-09-15T07:56:06.159Z,19.35
2018-09-15T07:58:37.310Z,17.00
2018-09-15T08:01:08.705Z,15.75
2018-09-15T08:03:39.783Z,13.88
2018-09-15T08:06:11.937Z,15.32
2018-09-15T08:08:43.009Z,14.58
2018-09-15T08:11:14.082Z,14.73
2018-09-15T08:13:45.382Z,16.77
2018-09-15T08:16:16.738Z,14.75
2018-09-15T08:18:47.850Z,14.30
2018-09-15T08:21:19.496Z,14.07
2018-09-15T08:23:50.510Z,15.38
2018-09-15T08:26:21.800Z,13.10
2018-09-15T08:28:52.894Z,11.65
2018-09-15T08:31:24.321Z,13.50
2018-09-15T08:33:55.490Z,13.18
2018-09-15T08:36:27.573Z,14.35
2018-09-15T08:38:58.502Z,12.30
2018-09-15T08:41:30.186Z,11.93
2018-09-15T08:44:01.230Z,10.80
2018-09-15T08:46:32.859Z,12.43
2018-09-15T08:49:03.913Z,13.53
2018-09-15T08:51:35.799Z,11.63
2018-09-15T08:54:10.050Z,13.43
2018-09-15T08:56:42.390Z,12.33
2018-09-15T08:59:15.250Z,13.35
2018-09-15T09:01:46.904Z,11.30
2018-09-15T09:04:17.861Z,10.32
2018-09-15T09:06:49.554Z,10.88
2018-09-15T09:09:20.627Z,10.50
2018-09-15T09:11:51.976Z,11.00
2018-09-15T09:14:23.338Z,11.18
2018-09-15T09:16:54.554Z,14.05
2018-09-15T09:19:25.722Z,11.68
2018-09-15T09:21:56.899Z,11.63
2018-09-15T09:24:28.298Z,11.65
2018-09-15T09:26:59.921Z,12.47
2018-09-15T09:29:30.947Z,12.98
2018-09-15T09:32:02.309Z,13.13
2018-09-15T09:34:33.382Z,15.10
2018-09-15T09:37:05.253Z,14.05
2018-09-15T09:39:36.418Z,13.93
2018-09-15T09:42:07.822Z,15.68
2018-09-15T09:44:38.918Z,15.68
2018-09-15T09:47:10.488Z,14.18
2018-09-15T09:49:41.398Z,15.88
2018-09-15T09:52:12.551Z,15.65
2018-09-15T09:54:45.585Z,15.43
2018-09-15T09:57:17.237Z,15.25
2018-09-15T09:59:48.516Z,17.00
2018-09-15T10:02:26.049Z,17.10
2018-09-15T10:04:56.995Z,15.40
2018-09-15T10:07:28.118Z,16.35
2018-09-15T10:09:59.083Z,15.48
2018-09-15T10:12:32.405Z,16.45
2018-09-15T10:15:08.063Z,15.40
2018-09-15T10:17:39.420Z,16.50
2018-09-15T10:20:10.605Z,16.05
2018-09-15T10:22:42.021Z,15.10
2018-09-15T10:25:13.205Z,16.10
2018-09-15T10:27:44.681Z,14.27
2018-09-15T10:30:15.892Z,15.37
2018-09-15T10:32:47.350Z,17.30
2018-09-15T10:35:18.425Z,16.63
2018-09-15T10:37:50.067Z,15.60
2018-09-15T10:40:21.038Z,14.90
2018-09-15T10:42:52.338Z,14.97
2018-09-15T10:45:23.377Z,15.57
2018-09-15T10:47:54.841Z,13.70
2018-09-15T10:50:25.790Z,14.60
2018-09-15T10:52:57.566Z,14.77
2018-09-15T10:55:29.215Z,17.17
2018-09-15T10:58:01.577Z,19.13
2018-09-15T11:00:33.466Z,14.80
2018-09-15T11:03:06.578Z,15.77
2018-09-15T11:05:37.495Z,15.73
2018-09-15T11:08:08.605Z,15.80
2018-09-15T11:10:40.037Z,14.70
2018-09-15T11:13:11.507Z,15.53
2018-09-15T11:15:42.718Z,14.70
2018-09-15T11:18:14.191Z,16.10
2018-09-15T11:20:45.873Z,13.27
2018-09-15T11:23:17.210Z,15.10
2018-09-15T11:25:48.270Z,13.70
2018-09-15T11:28:19.612Z,14.23
2018-09-15T11:30:50.743Z,14.20
2018-09-15T11:33:21.996Z,13.23
2018-09-15T11:35:53.190Z,12.77
2018-09-15T11:38:24.829Z,13.53
2018-09-15T11:40:55.933Z,15.80
2018-09-15T11:43:27.465Z,13.60
2018-09-15T11:45:58.619Z,14.00
2018-09-15T11:48:30.201Z,14.40
2018-09-15T11:51:04.724Z,14.17
2018-09-15T11:53:36.125Z,15.73
2018-09-15T11:56:09.781Z,15.40
2018-09-15T11:58:41.431Z,17.20
2018-09-15T12:01:12.469Z,14.80
2018-09-15T12:03:44.742Z,14.73
2018-09-15T12:06:15.801Z,14.30
2018-09-15T12:08:47.282Z,15.97
2018-09-15T12:11:18.733Z,15.10
2018-09-15T12:13:50.589Z,14.53
2018-09-15T12:16:21.823Z,14.27
2018-09-15T12:18:53.139Z,14.43
2018-09-15T12:21:24.427Z,12.77
2018-09-15T12:23:55.716Z,12.70
2018-09-15T12:26:26.701Z,13.17
2018-09-15T12:28:58.231Z,13.70
2018-09-15T12:31:29.438Z,12.67
2018-09-15T12:34:00.849Z,12.60
2018-09-15T12:36:32.182Z,14.87
2018-09-15T12:39:05.637Z,13.97
2018-09-15T12:41:36.668Z,13.60
2018-09-15T12:44:08.189Z,14.60
2018-09-15T12:46:39.320Z,14.77
2018-09-15T12:49:10.548Z,13.90
2018-09-15T12:51:41.875Z,14.00
2018-09-15T12:54:13.175Z,13.80
2018-09-15T12:56:45.383Z,14.73
2018-09-15T12:59:16.988Z,15.13
2018-09-15T13:01:48.198Z,15.13
2018-09-15T13:04:19.870Z,15.00
2018-09-15T13:06:50.995Z,14.20
2018-09-15T13:09:22.451Z,16.67
2018-09-15T13:11:53.549Z,16.53
2018-09-15T13:14:24.830Z,16.57
2018-09-15T13:16:55.968Z,17.13
2018-09-15T13:19:27.699Z,15.50
2018-09-15T13:21:58.853Z,16.00
2018-09-15T13:24:31.299Z,16.90
2018-09-15T13:27:02.445Z,18.03
2018-09-15T13:29:33.968Z,17.80
2018-09-15T13:32:05.329Z,16.27
2018-09-15T13:34:36.982Z,18.50
2018-09-15T13:37:08.331Z,16.77
2018-09-15T13:39:39.850Z,17.57
2018-09-15T13:42:10.880Z,16.60
2018-09-15T13:44:42.134Z,17.77
2018-09-15T13:47:13.190Z,16.33
2018-09-15T13:49:44.654Z,16.87
2018-09-15T13:52:15.938Z,17.20
2018-09-15T13:54:47.388Z,18.00
2018-09-15T13:57:19.509Z,18.00
2018-09-15T13:59:53.733Z,18.83
2018-09-15T14:02:24.650Z,18.33
2018-09-15T14:04:56.766Z,18.90
2018-09-15T14:07:27.865Z,20.40
2018-09-15T14:09:59.179Z,19.93
2018-09-15T14:12:30.250Z,19.30
2018-09-15T14:15:01.710Z,18.67
2018-09-15T14:17:32.941Z,17.33
2018-09-15T14:20:06.664Z,20.17
2018-09-15T14:22:37.709Z,19.60
2018-09-15T14:25:08.966Z,18.43
2018-09-15T14:27:40.564Z,19.33
2018-09-15T14:30:12.096Z,18.10
2018-09-15T14:32:43.108Z,18.70
2018-09-15T14:35:14.492Z,17.90
2018-09-15T14:37:45.705Z,16.63
2018-09-15T14:40:17.125Z,17.03
2018-09-15T14:42:48.437Z,17.60
2018-09-15T14:45:20.800Z,18.43
2018-09-15T14:47:51.900Z,17.00
2018-09-15T14:50:23.544Z,19.23
2018-09-15T14:52:54.705Z,18.63
2018-09-15T14:55:26.158Z,17.33
2018-09-15T14:57:58.063Z,17.80
2018-09-15T15:00:29.643Z,17.30
2018-09-15T15:03:03.365Z,17.90
2018-09-15T15:05:36.023Z,16.37
2018-09-15T15:08:07.245Z,17.10
2018-09-15T15:10:38.641Z,17.20
2018-09-15T15:13:09.905Z,17.20
2018-09-15T15:15:41.394Z,18.37
2018-09-15T15:18:12.335Z,19.37
2018-09-15T15:20:43.957Z,18.80
2018-09-15T15:23:15.274Z,18.73
2018-09-15T15:25:46.521Z,19.30
2018-09-15T15:28:17.630Z,18.07
2018-09-15T15:30:49.197Z,17.00
2018-09-15T15:33:20.313Z,16.73
2018-09-15T15:35:51.650Z,19.20
2018-09-15T15:38:22.982Z,17.17
2018-09-15T15:40:54.472Z,17.13
2018-09-15T15:43:25.835Z,16.77
2018-09-15T15:45:57.176Z,19.20
2018-09-15T15:48:28.493Z,18.10
2018-09-15T15:50:59.962Z,17.23
2018-09-15T15:53:31.277Z,17.83
2018-09-15T15:56:04.091Z,20.17
2018-09-15T15:58:37.029Z,18.30
2018-09-15T16:01:08.670Z,17.83
2018-09-15T16:03:39.669Z,17.43
2018-09-15T16:06:10.994Z,18.77
2018-09-15T16:08:42.040Z,19.20
2018-09-15T16:11:13.479Z,16.77
2018-09-15T16:13:44.753Z,18.83
2018-09-15T16:16:16.242Z,19.10
2018-09-15T16:18:47.154Z,18.67
2018-09-15T16:21:18.408Z,20.67
2018-09-15T16:23:49.541Z,18.30
2018-09-15T16:26:27.882Z,18.80
2018-09-15T16:28:59.751Z,20.83
2018-09-15T16:31:31.007Z,19.33
2018-09-15T16:34:04.444Z,17.83
2018-09-15T16:36:36.497Z,18.90
2018-09-15T16:39:12.853Z,19.70
2018-09-15T16:41:44.105Z,19.80
2018-09-15T16:44:15.349Z,18.50
2018-09-15T16:46:48.282Z,18.77
2018-09-15T16:49:19.516Z,20.40
2018-09-15T16:51:50.922Z,20.30
2018-09-15T16:54:22.389Z,18.67
2018-09-15T16:56:53.778Z,19.03
2018-09-15T16:59:26.259Z,19.67
2018-09-15T17:01:58.307Z,19.17
2018-09-15T17:04:31.315Z,17.47
2018-09-15T17:07:16.421Z,19.30
2018-09-15T17:09:48.373Z,18.40
2018-09-15T17:12:20.461Z,20.83
2018-09-15T17:14:53.402Z,19.07
2018-09-15T17:17:25.571Z,18.50
2018-09-15T17:19:57.147Z,19.10
2018-09-15T17:22:28.733Z,20.23
2018-09-15T17:24:59.970Z,19.90
2018-09-15T17:27:31.849Z,18.00
2018-09-15T17:30:03.871Z,19.90
2018-09-15T17:32:35.750Z,19.00
2018-09-15T17:35:08.433Z,18.60
2018-09-15T17:37:40.230Z,19.17
2018-09-15T17:40:11.613Z,17.33
2018-09-15T17:42:43.309Z,19.77
2018-09-15T17:45:14.752Z,19.40
2018-09-15T17:47:46.486Z,20.57
2018-09-15T17:50:17.927Z,21.30
2018-09-15T17:52:49.729Z,20.17
2018-09-15T17:55:21.251Z,20.27
2018-09-15T17:57:52.770Z,20.27
2018-09-15T18:00:25.630Z,20.40
2018-09-15T18:02:57.209Z,20.43
2018-09-15T18:05:28.486Z,20.27
2018-09-15T18:08:00.318Z,18.80
2018-09-15T18:10:31.532Z,19.13
2018-09-15T18:13:03.978Z,21.77
2018-09-15T18:15:35.319Z,18.97
2018-09-15T18:18:07.025Z,20.60
2018-09-15T18:20:38.322Z,20.47
2018-09-15T18:23:10.263Z,20.87
2018-09-15T18:25:41.593Z,20.87
2018-09-15T18:28:28.933Z,19.37
2018-09-15T18:31:03.204Z,20.10
2018-09-15T18:33:36.525Z,19.60
2018-09-15T18:36:08.203Z,19.90
2018-09-15T18:38:39.873Z,19.10
2018-09-15T18:41:11.365Z,17.50
2018-09-15T18:44:05.216Z,18.60
2018-09-15T18:46:36.650Z,18.30
2018-09-15T18:49:08.712Z,18.50
2018-09-15T18:51:40.314Z,19.40
2018-09-15T18:54:12.093Z,17.80
2018-09-15T18:56:43.298Z,17.43
2018-09-15T18:59:14.701Z,19.00
2018-09-15T19:01:46.971Z,18.93
2018-09-15T19:04:18.585Z,18.90
2018-09-15T19:06:49.941Z,19.93
2018-09-15T19:09:21.430Z,17.83
2018-09-15T19:11:52.816Z,17.53
2018-09-15T19:14:24.561Z,18.87
2018-09-15T19:16:55.850Z,17.07
2018-09-15T19:19:27.413Z,17.13
2018-09-15T19:21:58.858Z,18.53
2018-09-15T19:24:30.587Z,17.40
2018-09-15T19:27:03.822Z,19.33
2018-09-15T19:29:36.229Z,18.07
2018-09-15T19:32:08.660Z,18.23
2018-09-15T19:34:40.269Z,18.20
2018-09-15T19:37:11.800Z,18.43
2018-09-15T19:39:43.978Z,18.97
2018-09-15T19:42:15.289Z,19.83
2018-09-15T19:44:46.845Z,17.93
2018-09-15T19:47:18.378Z,19.67
2018-09-15T19:49:49.952Z,18.40
2018-09-15T19:52:21.533Z,19.60
2018-09-15T19:54:53.034Z,17.17
2018-09-15T19:57:24.313Z,19.40
2018-09-15T19:59:56.198Z,18.10
2018-09-15T20:02:28.530Z,18.47
2018-09-15T20:05:00.290Z,19.87
2018-09-15T20:07:31.646Z,19.77
2018-09-15T20:10:03.237Z,19.57
2018-09-15T20:12:34.840Z,19.93
2018-09-15T20:15:06.567Z,18.03
2018-09-15T20:17:35.333Z,17.20
2018-09-15T20:20:05.529Z,17.90
2018-09-15T20:22:37.217Z,18.67
2018-09-15T20:25:08.921Z,18.97
2018-09-15T20:27:40.581Z,17.77
2018-09-15T20:30:11.756Z,17.73
2018-09-15T20:32:43.360Z,18.70
2018-09-15T20:35:15.366Z,16.87
2018-09-15T20:37:46.812Z,18.50
2018-09-15T20:40:18.418Z,18.33
2018-09-15T20:42:49.950Z,18.10
2018-09-15T20:45:21.425Z,17.73
2018-09-15T20:47:53.017Z,18.30
2018-09-15T20:50:24.294Z,18.50
2018-09-15T20:52:56.465Z,17.13
2018-09-15T20:55:28.010Z,18.23
2018-09-15T20:57:59.670Z,19.10
2018-09-15T21:00:31.732Z,19.27
2018-09-15T21:03:05.317Z,18.27
2018-09-15T21:05:36.615Z,17.50
2018-09-15T21:08:08.037Z,17.50
2018-09-15T21:10:39.453Z,16.60
2018-09-15T21:13:11.273Z,16.40
2018-09-15T21:15:42.585Z,17.37
2018-09-15T21:18:15.025Z,17.23
2018-09-15T21:20:46.304Z,16.03
2018-09-15T21:23:17.849Z,15.10
2018-09-15T21:25:49.232Z,15.80
2018-09-15T21:28:20.915Z,16.30
2018-09-15T21:30:52.161Z,16.00
2018-09-15T21:33:23.874Z,15.07
2018-09-15T21:35:55.114Z,15.90
2018-09-15T21:38:26.861Z,15.70
2018-09-15T21:40:58.425Z,15.20
2018-09-15T21:43:30.062Z,16.33
2018-09-15T21:46:01.593Z,14.77
2018-09-15T21:48:33.519Z,15.13
2018-09-15T21:51:04.855Z,15.10
2018-09-15T21:53:36.640Z,14.30
2018-09-15T21:56:08.117Z,14.40
2018-09-15T21:58:39.829Z,15.10
2018-09-15T22:01:11.274Z,14.93
2018-09-15T22:03:49.563Z,17.27
2018-09-15T22:06:21.082Z,16.00
2018-09-15T22:08:52.557Z,14.43
2018-09-15T22:11:24.051Z,14.87
2018-09-15T22:13:55.829Z,13.73
2018-09-15T22:16:27.085Z,13.97
2018-09-15T22:18:58.876Z,13.40
2018-09-15T22:21:30.474Z,14.10
2018-09-15T22:24:01.993Z,13.23
2018-09-15T22:26:33.550Z,13.73
2018-09-15T22:29:05.674Z,13.63
2018-09-15T22:31:37.329Z,12.90
2018-09-15T22:34:08.919Z,14.20
2018-09-15T22:36:40.334Z,13.47
2018-09-15T22:39:12.150Z,13.53
2018-09-15T22:41:43.486Z,12.97
2018-09-15T22:44:15.049Z,14.30
2018-09-15T22:46:46.467Z,13.80
2018-09-15T22:49:17.914Z,13.00
2018-09-15T22:51:49.603Z,13.10
2018-09-15T22:54:21.149Z,13.90
2018-09-15T22:56:52.566Z,14.80
2018-09-15T22:59:24.429Z,13.80
2018-09-15T23:01:55.605Z,13.97
2018-09-15T23:04:29.045Z,13.50
2018-09-15T23:07:00.513Z,14.70
2018-09-15T23:09:32.127Z,15.00
2018-09-15T23:12:03.501Z,13.27
2018-09-15T23:14:35.244Z,12.60
2018-09-15T23:17:06.633Z,14.30
2018-09-15T23:19:38.554Z,13.77
2018-09-15T23:22:10.186Z,13.27
2018-09-15T23:24:41.778Z,12.83
2018-09-15T23:27:13.000Z,14.20
2018-09-15T23:29:44.585Z,13.70
2018-09-15T23:32:15.929Z,16.90
2018-09-15T23:34:47.682Z,13.70
2018-09-15T23:37:18.910Z,13.50
2018-09-15T23:39:50.632Z,12.67
2018-09-15T23:42:22.067Z,14.03
2018-09-15T23:44:53.705Z,15.83
2018-09-15T23:47:25.169Z,15.00
2018-09-15T23:49:56.902Z,14.10
2018-09-15T23:52:28.128Z,13.80
2018-09-15T23:55:00.284Z,14.30
2018-09-15T23:57:31.941Z,13.60
